• Join FlightAware (Why Join?)
  • Login
  • US Flag 
10:32AM EDT


 

Airport Tracker/Info


-or-


 

Live Flight TrackerFlight Track Log ✈ ASQ5941 ✈ 16-Jul-2013 ✈ KAVP - KORD

Flight Track Log - Related Links

Times and Time Zones

All times are in EDT time to prevent confusion due to time zone crossing. See the ASQ5941 flight status page for this flight to view local times or setup timezone preferences in your user account.

Time Position Orientation Groundspeed Altitude Reporting Facility
EDT Latitude Longitude Course Direction KTS MPH feet Rate Location/Type
05:23PM 41.4608 -75.6956 330° Northwest 190 219 6,400  Level New York Center
05:24PM 41.4390 -75.9614 304° West  Level FlightAware Approximate
05:24PM 41.5044 -75.7542 315° West 191 220 8,500  Level New York Center
05:25PM 41.4929 -76.0516 315° West  Level FlightAware Approximate
05:25PM 41.5575 -75.8275 314° West 226 260 10,000  Level New York Center
05:26PM 41.5521 -76.1365 312° West  Level FlightAware Approximate
05:26PM 41.5936 -75.9050 302° West 256 295 11,100  Level New York Center
05:27PM 41.6076 -76.2257 307° West  Level FlightAware Approximate
05:27PM 41.6264 -76.0131 292° West 290 334 11,800  Level New York Center
05:28PM 41.6625 -76.1408 291° West 335 386 13,100 1,140 Climbing New York Center
05:29PM 41.6944 -76.2575 290° West 335 386 14,200 1,080 Climbing New York Center
05:30PM 41.7250 -76.3628 291° West 335 386 15,300 1,080 Climbing New York Center
05:31PM 41.7589 -76.4822 291° West 340 391 16,400 1,200 Climbing New York Center
05:32PM 41.7942 -76.6133 290° West 340 391 17,700 960 Climbing New York Center
05:33PM 41.8278 -76.7361 290° West 340 391 18,400 780 Climbing New York Center
05:35PM 41.8953 -76.9817 290° West 357 411 20,200 840 Climbing Cleveland Center
05:36PM 41.9306 -77.1108 290° West 357 411 21,100 900 Climbing Cleveland Center
05:37PM 41.9656 -77.2403 290° West 368 423 22,100 900 Climbing Cleveland Center
05:38PM 42.0006 -77.3725 290° West 368 423 23,000 900 Climbing Cleveland Center
05:39PM 42.0375 -77.5022 291° West 368 423 23,900 900 Climbing Cleveland Center
05:40PM 42.0722 -77.6347 289° West 368 423 24,800 840 Climbing Cleveland Center
05:41PM 42.1069 -77.7703 289° West 373 429 25,600 780 Climbing Cleveland Center
05:42PM 42.1414 -77.9061 289° West 378 435 26,400 840 Climbing Cleveland Center
05:43PM 42.1778 -78.0417 290° West 378 435 27,300 780 Climbing Cleveland Center
05:44PM 42.2142 -78.1778 290° West 378 435 28,000 300 Climbing Cleveland Center
05:45PM 42.2506 -78.3194 289° West 383 441 28,000  Level Cleveland Center
05:46PM 42.2886 -78.4669 289° West 397 457 28,000 360 Level Cleveland Center
05:47PM 42.3289 -78.6172 290° West 417 480 28,800 1,020 Climbing Cleveland Center
05:48PM 42.3647 -78.7650 288° West 422 486 30,100 1,200 Climbing Cleveland Center
05:49PM 42.4022 -78.9158 289° West 405 466 31,200 900 Climbing Cleveland Center
05:50PM 42.4356 -79.0556 288° West 399 459 32,000 360 Climbing Cleveland Center
05:51PM 42.4750 -79.2067 290° West 416 479 32,000  Level Cleveland Center
05:52PM 42.4972 -79.3414 283° West 422 486 32,000  Level Cleveland Center
05:53PM 42.5053 -79.5103 274° West 435 501 32,000  Level Cleveland Center
05:54PM 42.5131 -79.6819 274° West 449 517 32,000  Level Cleveland Center
05:55PM 42.5225 -79.8508 274° West 455 524 32,000  Level Cleveland Center
05:56PM 42.5422 -80.0308 279° West 455 524 32,000  Level Cleveland Center
05:57PM 42.5719 -80.1856 285° West 438 504 32,000  Level Cleveland Center
05:58PM 42.6036 -80.3264 287° West 428 493 32,000  Level Cleveland Center
05:59PM 42.6436 -80.4758 290° West 428 493 32,000  Level Cleveland Center
06:00PM 42.6875 -80.6228 292° West 423 487 32,000  Level Cleveland Center
06:01PM 42.7539 -80.7556 304° West 429 494 32,000  Level Cleveland Center
06:03PM 42.9500 -80.8167 347° North 430 495 32,000  Level Toronto Center
06:04PM 43.0667 -80.8500 348° North 420 483 32,000  Level Toronto Center
06:05PM 43.1667 -80.8833 346° North 420 483 32,000  Level Toronto Center
06:06PM 43.2500 -80.9833 319° Northwest 410 472 32,000  Level Toronto Center
06:07PM 43.3500 -81.0833 324° Northwest 410 472 32,000  Level Toronto Center
06:08PM 43.4167 -81.2000 308° West 410 472 32,000  Level Toronto Center
06:09PM 43.4167 -81.3833 270° West 430 495 32,000  Level Toronto Center
06:10PM 43.4000 -81.5333 261° West 440 506 32,000  Level Toronto Center
06:11PM 43.3667 -81.7000 255° West 440 506 32,000  Level Toronto Center
06:12PM 43.3333 -81.8500 253° West 440 506 32,000  Level Toronto Center
06:13PM 43.3000 -82.0167 255° West 430 495 32,000  Level Toronto Center
06:14PM 43.2667 -82.1667 253° West 430 495 32,000  Level Toronto Center
06:15PM 43.2333 -82.3333 255° West 440 506 32,000  Level Toronto Center
06:16PM 43.2167 -82.5000 262° West 440 506 32,000  Level Toronto Center
06:17PM 43.1667 -82.6667 248° West 450 518 32,000  Level Toronto Center
06:18PM 43.1333 -82.8333 255° West 460 529 32,000  Level Toronto Center
06:19PM 43.1167 -82.9833 261° West 450 518 32,000  Level Toronto Center
06:20PM 43.0833 -83.1667 256° West 440 506 32,000  Level Toronto Center
06:21PM 43.0117 -83.3856 246° West 434 499 32,000  Level Cleveland Center
06:22PM 42.9436 -83.5244 236° Southwest 440 506 32,000  Level Cleveland Center
06:23PM 42.9000 -83.6783 249° West 445 512 32,000  Level Cleveland Center
06:24PM 42.8997 -83.8456 270° West 439 505 32,000  Level Cleveland Center
06:25PM 42.8969 -84.0156 269° West 439 505 32,000  Level Cleveland Center
06:26PM 42.8917 -84.1853 268° West 444 511 32,000  Level Cleveland Center
06:27PM 42.8903 -84.3553 269° West 444 511 32,000  Level Cleveland Center
06:28PM 42.8867 -84.5281 268° West 449 517 32,000  Level Cleveland Center
06:30PM 42.8689 -84.7322 263° West 455 524 32,000  Level Chicago Center
06:31PM 42.8511 -84.9008 262° West 452 520 32,000 -60 Level Chicago Center
06:32PM 42.8297 -85.1011 262° West 446 513 31,900 -780 Descending Chicago Center
06:33PM 42.8122 -85.2672 262° West 445 512 30,500 -1,440 Descending Chicago Center
06:34PM 42.7928 -85.4383 261° West 447 514 29,000 -1,440 Descending Chicago Center
06:35PM 42.7686 -85.5947 258° West 435 501 27,600 -1,440 Descending Chicago Center
06:36PM 42.7417 -85.7469 256° West 418 481 26,100 -1,500 Descending Chicago Center
06:37PM 42.7147 -85.8944 256° West 406 467 24,600 -1,500 Descending Chicago Center
06:38PM 42.6894 -86.0339 256° West 387 445 23,100 -1,560 Descending Chicago Center
06:39PM 42.6614 -86.1886 256° West 354 407 21,400 -1,440 Descending Chicago Center
06:40PM 42.6361 -86.3208 255° West 359 413 20,200 -1,200 Descending Chicago Center
06:41PM 42.6106 -86.4558 256° West 366 421 19,000 -1,140 Descending Chicago Center
06:42PM 42.5861 -86.5881 256° West 362 417 17,900 -1,620 Descending Chicago Center
06:43PM 42.5622 -86.7133 256° West 349 402 15,700 -2,040 Descending Chicago Center
06:44PM 42.5344 -86.8225 251° West 315 362 13,800 -1,560 Descending Chicago Center
06:45PM 42.5006 -86.9475 250° West 294 338 12,500 -900 Descending Chicago Center
06:46PM 42.4697 -87.0536 249° West 300 345 12,000 -960 Descending Chicago Center
06:47PM 42.4550 -87.1572 259° West 287 330 10,600 -1,440 Descending Chicago Center
06:48PM 42.4531 -87.2614 269° West 277 319 9,100 -900 Descending Chicago Center
06:49PM 42.3978 -87.3267 221° Southwest 267 307 8,800 -1,140 Descending Chicago Center
06:50PM 42.3672 -87.4297 248° West 262 302 6,800 -1,380 Descending Chicago Center
06:51PM 42.3353 -87.5153 243° Southwest 270 311 6,000 -420 Descending Chicago Center
06:52PM 42.2644 -87.5142 179° South 259 298 6,000 -420 Level Chicago Center
06:53PM 42.1917 -87.5067 176° South 264 304 5,200 -540 Descending Chicago Center
06:54PM 42.1222 -87.5031 178° South 255 293 4,900 -600 Descending Chicago Center
06:56PM 42.0831 -87.6031 242° Southwest 251 289 4,000 -660 Descending Chicago Center
06:57PM 42.0525 -87.6828 243° Southwest 245 282 3,600 -420 Descending Chicago Center